Time;durP1;ratioP1;P1;durP2;ratioP2;P2;SDS_P1;SDS_P2;PMS_P1;PMS_P2;Temp;Humidity;BMP_temperature;BMP_pressure;BME280_temperature;BME280_humidity;BME280_pressure;Samples;Min_cycle;Max_cycle;Signal;HPM_P1;HPM_P2
2021/11/22 00:01:06;;;;;;;22.48;11.55;;;8.10;99.90;;;;;;5084510;28;20040;-61
2021/11/22 00:03:32;;;;;;;19.27;10.60;;;8.10;99.90;;;;;;5091637;28;20024;-62
2021/11/22 00:05:58;;;;;;;21.65;10.80;;;8.20;99.90;;;;;;5072444;28;20097;-61
2021/11/22 00:08:24;;;;;;;19.08;10.80;;;8.10;99.90;;;;;;5072099;28;20367;-62
2021/11/22 00:10:50;;;;;;;19.50;10.82;;;8.00;99.90;;;;;;5066324;28;20508;-63
2021/11/22 00:13:16;;;;;;;20.55;11.80;;;8.00;99.90;;;;;;5073265;28;20059;-62
2021/11/22 00:15:42;;;;;;;20.80;11.75;;;8.00;99.90;;;;;;5084770;28;20095;-62
2021/11/22 00:18:08;;;;;;;19.25;10.80;;;8.00;99.90;;;;;;5090931;28;20669;-63
2021/11/22 00:20:34;;;;;;;21.38;10.75;;;8.10;99.90;;;;;;5078440;28;20048;-61
2021/11/22 00:22:59;;;;;;;22.10;11.70;;;8.10;99.90;;;;;;5071425;28;20063;-62
2021/11/22 00:25:25;;;;;;;19.52;11.00;;;8.00;99.90;;;;;;5078823;28;20024;-62
2021/11/22 00:27:51;;;;;;;18.88;10.95;;;8.10;99.90;;;;;;5083401;28;20149;-62
2021/11/22 00:30:17;;;;;;;22.63;13.07;;;8.10;99.90;;;;;;5073074;28;20024;-61
2021/11/22 00:32:45;;;;;;;18.08;10.48;;;8.00;99.90;;;;;;5079197;28;20037;-61
2021/11/22 00:35:13;;;;;;;20.92;11.75;;;8.00;99.90;;;;;;5088907;28;20034;-62
2021/11/22 00:37:41;;;;;;;17.65;9.77;;;8.00;99.90;;;;;;5083288;28;20028;-61
2021/11/22 00:40:09;;;;;;;19.42;11.35;;;8.00;99.90;;;;;;5090182;28;20040;-62
2021/11/22 00:42:37;;;;;;;16.15;9.43;;;8.00;99.90;;;;;;5090604;28;20051;-62
2021/11/22 00:45:03;;;;;;;18.05;10.30;;;8.00;99.90;;;;;;5090456;28;20434;-61
2021/11/22 00:47:29;;;;;;;17.30;9.98;;;8.00;99.90;;;;;;5072910;28;20376;-62
2021/11/22 00:49:55;;;;;;;16.80;10.48;;;8.00;99.90;;;;;;5078740;28;20036;-62
2021/11/22 00:52:20;;;;;;;18.52;10.52;;;8.00;99.90;;;;;;5072930;28;20033;-61
2021/11/22 00:54:46;;;;;;;15.80;9.70;;;8.00;99.90;;;;;;5078254;28;20028;-61
2021/11/22 00:57:12;;;;;;;17.90;9.45;;;8.00;99.90;;;;;;5063843;28;20338;-61
2021/11/22 00:59:38;;;;;;;18.25;9.10;;;7.90;99.90;;;;;;5084412;28;20028;-62
2021/11/22 01:02:04;;;;;;;17.73;9.50;;;7.90;99.90;;;;;;5073509;28;20044;-61
2021/11/22 01:04:30;;;;;;;14.88;9.65;;;8.00;99.90;;;;;;5075055;28;20070;-63
2021/11/22 01:06:55;;;;;;;14.85;9.32;;;8.10;99.90;;;;;;5076014;28;20446;-61
2021/11/22 01:09:21;;;;;;;15.77;8.85;;;8.00;99.90;;;;;;5080871;28;20081;-62
2021/11/22 01:11:47;;;;;;;14.07;8.48;;;8.00;99.90;;;;;;5090313;28;20024;-61
2021/11/22 01:14:14;;;;;;;14.68;8.27;;;7.90;99.90;;;;;;5083636;28;20020;-62
2021/11/22 01:16:41;;;;;;;15.13;8.80;;;8.00;99.90;;;;;;5081194;28;20082;-62
2021/11/22 01:19:06;;;;;;;13.50;9.40;;;7.90;99.90;;;;;;5070513;28;20482;-62
2021/11/22 01:21:33;;;;;;;13.85;7.57;;;7.90;99.90;;;;;;5070995;28;20032;-62
2021/11/22 01:23:59;;;;;;;16.63;9.48;;;7.80;99.90;;;;;;5064487;28;20028;-62
2021/11/22 01:26:25;;;;;;;14.55;8.05;;;7.80;99.90;;;;;;5090882;28;20020;-61
2021/11/22 01:28:51;;;;;;;24.98;8.95;;;7.90;99.90;;;;;;5090684;28;20055;-60
2021/11/22 01:31:17;;;;;;;18.65;8.23;;;7.90;99.90;;;;;;5090170;28;20032;-62
2021/11/22 01:33:43;;;;;;;15.43;7.18;;;7.80;99.90;;;;;;5075710;28;20493;-61
2021/11/22 01:36:08;;;;;;;11.63;7.38;;;7.80;99.90;;;;;;5063666;28;20067;-62
2021/11/22 01:38:34;;;;;;;14.85;6.93;;;7.70;99.90;;;;;;5071470;28;20081;-62
2021/11/22 01:41:03;;;;;;;11.38;5.32;;;7.80;99.90;;;;;;5075776;28;20124;-62
2021/11/22 01:43:30;;;;;;;10.10;5.40;;;7.80;99.90;;;;;;5071993;28;20099;-62
2021/11/22 01:45:55;;;;;;;7.45;4.80;;;7.80;99.90;;;;;;5089548;28;20099;-62
2021/11/22 01:48:22;;;;;;;10.75;4.72;;;7.80;99.90;;;;;;5090248;28;20111;-62
2021/11/22 01:50:48;;;;;;;10.43;4.93;;;7.80;99.90;;;;;;5090349;28;20047;-62
2021/11/22 01:53:15;;;;;;;10.55;5.05;;;7.80;99.90;;;;;;5092301;28;20032;-61
2021/11/22 01:55:42;;;;;;;11.27;5.07;;;7.80;99.90;;;;;;5072925;28;20056;-61
2021/11/22 01:58:08;;;;;;;10.15;4.88;;;7.70;99.90;;;;;;5066007;28;20431;-61
2021/11/22 02:00:43;;;;;;;8.27;3.60;;;7.60;99.90;;;;;;5056132;28;20047;-62
2021/11/22 02:03:10;;;;;;;6.07;3.58;;;7.60;99.90;;;;;;5063385;28;20523;-62
2021/11/22 02:05:36;;;;;;;7.85;3.42;;;7.60;99.90;;;;;;5090200;28;20378;-62
2021/11/22 02:08:04;;;;;;;9.45;3.28;;;7.70;99.90;;;;;;5065703;28;20028;-61
2021/11/22 02:10:31;;;;;;;7.10;3.05;;;7.70;99.90;;;;;;5080529;28;20418;-61
2021/11/22 02:12:57;;;;;;;5.75;2.80;;;7.70;99.90;;;;;;5074787;28;20214;-62
2021/11/22 02:15:23;;;;;;;7.82;3.58;;;7.70;99.90;;;;;;5075043;28;20107;-62
2021/11/22 02:17:51;;;;;;;12.00;3.58;;;7.60;99.90;;;;;;5066783;28;20115;-62
2021/11/22 02:20:23;;;;;;;9.68;3.70;;;7.60;99.90;;;;;;5092988;28;20052;-61
2021/11/22 02:22:51;;;;;;;8.77;3.45;;;7.60;99.90;;;;;;5082789;28;20028;-61
2021/11/22 02:25:19;;;;;;;11.43;2.97;;;7.60;99.90;;;;;;5067486;28;20024;-61
2021/11/22 02:27:46;;;;;;;10.15;3.45;;;7.60;99.90;;;;;;5060959;28;20048;-61
2021/11/22 02:30:14;;;;;;;15.25;2.90;;;7.70;99.90;;;;;;5066635;28;20123;-62
2021/11/22 02:32:41;;;;;;;8.45;4.13;;;7.70;99.90;;;;;;5073979;28;20066;-61
2021/11/22 02:35:10;;;;;;;8.25;3.17;;;7.70;99.90;;;;;;5074673;28;20036;-61
2021/11/22 02:37:36;;;;;;;6.40;3.05;;;7.60;99.90;;;;;;5074979;28;20024;-62
2021/11/22 02:40:04;;;;;;;12.60;4.13;;;7.50;99.90;;;;;;5073956;28;20028;-62
2021/11/22 02:42:32;;;;;;;12.55;3.00;;;7.50;99.90;;;;;;5078377;28;20488;-62
2021/11/22 02:44:59;;;;;;;5.38;2.80;;;7.40;99.90;;;;;;5072898;28;20028;-62
2021/11/22 02:47:25;;;;;;;8.95;3.72;;;7.50;99.90;;;;;;5087621;28;20029;-61
2021/11/22 02:49:51;;;;;;;10.20;2.78;;;7.50;99.90;;;;;;5078447;28;20029;-61
2021/11/22 02:52:17;;;;;;;11.60;2.97;;;7.50;99.90;;;;;;5077532;28;20111;-61
2021/11/22 02:54:44;;;;;;;9.98;3.17;;;7.60;99.90;;;;;;5072740;28;20021;-61
2021/11/22 02:57:11;;;;;;;9.68;3.25;;;7.50;99.90;;;;;;5072805;28;20094;-61
2021/11/22 02:59:39;;;;;;;8.73;2.80;;;7.50;99.90;;;;;;5073325;28;20028;-61
2021/11/22 03:02:07;;;;;;;11.07;3.42;;;7.40;99.90;;;;;;5079955;28;20042;-61
2021/11/22 03:04:40;;;;;;;14.68;4.05;;;7.40;99.90;;;;;;5085510;28;20090;-61
2021/11/22 03:07:07;;;;;;;8.93;2.33;;;7.40;99.90;;;;;;5091961;28;20095;-60
2021/11/22 03:09:33;;;;;;;8.80;2.88;;;7.40;99.90;;;;;;5091808;28;20053;-61
2021/11/22 03:12:02;;;;;;;10.75;2.88;;;7.40;99.90;;;;;;5073916;28;20469;-62
2021/11/22 03:14:28;;;;;;;8.52;3.58;;;7.40;99.90;;;;;;5090904;28;20020;-62
2021/11/22 03:16:55;;;;;;;9.80;2.85;;;7.40;99.90;;;;;;5087338;28;20184;-61
2021/11/22 03:19:22;;;;;;;11.25;3.17;;;7.40;99.90;;;;;;5077082;28;20090;-61
2021/11/22 03:21:48;;;;;;;10.25;2.78;;;7.40;99.90;;;;;;5072867;28;20411;-61
2021/11/22 03:24:14;;;;;;;8.95;3.05;;;7.40;99.90;;;;;;5079609;28;20466;-61
2021/11/22 03:26:40;;;;;;;8.07;3.72;;;7.40;99.90;;;;;;5092235;28;20031;-61
2021/11/22 03:29:06;;;;;;;10.93;2.97;;;7.40;99.90;;;;;;5084632;28;20025;-61
2021/11/22 03:31:32;;;;;;;8.10;2.40;;;7.30;99.90;;;;;;5073148;28;20067;-62
2021/11/22 03:34:00;;;;;;;12.40;3.60;;;7.30;99.90;;;;;;5077996;28;20031;-65
2021/11/22 03:36:27;;;;;;;12.05;2.75;;;7.30;99.90;;;;;;5054665;28;20024;-61
2021/11/22 03:38:53;;;;;;;12.30;3.20;;;7.30;99.90;;;;;;5058320;28;20056;-61
2021/11/22 03:41:19;;;;;;;11.45;3.05;;;7.30;99.90;;;;;;5071826;28;20207;-61
2021/11/22 03:46:11;;;;;;;4.93;2.35;;;7.30;99.90;;;;;;5078515;28;20063;-61
2021/11/22 03:48:37;;;;;;;8.98;3.35;;;7.30;99.90;;;;;;5070441;28;20123;-61
2021/11/22 03:51:04;;;;;;;6.15;2.58;;;7.30;99.90;;;;;;5085043;28;20119;-60
2021/11/22 03:53:30;;;;;;;7.53;3.10;;;7.30;99.90;;;;;;5081232;28;20032;-61
2021/11/22 03:55:57;;;;;;;9.60;2.80;;;7.20;99.90;;;;;;5086057;28;20032;-62
2021/11/22 03:58:22;;;;;;;5.90;2.80;;;7.10;99.90;;;;;;5090270;28;20073;-61
2021/11/22 04:00:48;;;;;;;9.85;2.78;;;7.20;99.90;;;;;;5072820;28;20036;-61
2021/11/22 04:03:14;;;;;;;8.43;2.80;;;7.10;99.90;;;;;;5068869;28;20423;-60
2021/11/22 04:05:39;;;;;;;8.88;2.60;;;7.20;99.90;;;;;;5073787;28;20418;-61
2021/11/22 04:08:07;;;;;;;13.25;4.63;;;7.20;99.90;;;;;;5072412;28;20486;-61
2021/11/22 04:10:34;;;;;;;10.88;3.20;;;7.20;99.90;;;;;;5071979;28;20074;-61
2021/11/22 04:12:59;;;;;;;5.45;2.80;;;7.20;99.90;;;;;;5078403;28;20028;-61
2021/11/22 04:15:25;;;;;;;9.05;3.30;;;7.20;99.90;;;;;;5054514;28;20028;-62
2021/11/22 04:17:51;;;;;;;11.80;3.33;;;7.10;99.90;;;;;;5088880;28;20458;-61
2021/11/22 04:20:16;;;;;;;14.27;4.32;;;7.10;99.90;;;;;;5090417;28;20454;-61
2021/11/22 04:22:42;;;;;;;8.73;3.03;;;7.10;99.90;;;;;;5081673;28;20021;-61
2021/11/22 04:25:08;;;;;;;19.50;4.00;;;7.10;99.90;;;;;;5062832;28;20031;-61
2021/11/22 04:27:35;;;;;;;7.63;3.10;;;7.00;99.90;;;;;;5084656;28;20042;-61
2021/11/22 04:30:01;;;;;;;12.55;3.00;;;7.10;99.90;;;;;;5069937;28;20028;-61
2021/11/22 04:32:27;;;;;;;16.33;3.47;;;7.10;99.90;;;;;;5071105;28;20052;-61
2021/11/22 04:34:52;;;;;;;12.82;3.80;;;7.20;99.90;;;;;;5071670;28;20493;-61
2021/11/22 04:37:18;;;;;;;7.95;2.80;;;7.10;99.90;;;;;;5079809;28;20033;-62
2021/11/22 04:39:44;;;;;;;12.43;3.42;;;7.00;99.90;;;;;;5090866;28;20035;-61
2021/11/22 04:42:09;;;;;;;11.45;4.00;;;7.00;99.90;;;;;;5063783;28;20032;-61
2021/11/22 04:44:35;;;;;;;9.82;3.35;;;7.10;99.90;;;;;;5071635;28;20023;-62
2021/11/22 04:47:01;;;;;;;13.40;3.30;;;7.00;99.90;;;;;;5064730;28;20082;-61
2021/11/22 04:49:27;;;;;;;11.23;3.45;;;6.90;99.90;;;;;;5078840;28;20028;-61
2021/11/22 04:51:53;;;;;;;10.60;4.05;;;7.00;99.90;;;;;;5059932;28;20097;-61
2021/11/22 04:54:18;;;;;;;10.88;3.25;;;7.00;99.90;;;;;;5076837;28;20462;-62
2021/11/22 04:56:44;;;;;;;10.07;3.00;;;6.90;99.90;;;;;;5071143;28;20535;-62
2021/11/22 04:59:09;;;;;;;9.75;3.75;;;7.00;99.90;;;;;;5070748;28;20060;-63
2021/11/22 05:01:35;;;;;;;12.60;3.92;;;7.00;99.90;;;;;;5071474;28;20492;-62
2021/11/22 05:04:01;;;;;;;9.18;3.83;;;6.90;99.90;;;;;;5077437;28;20036;-62
2021/11/22 05:06:26;;;;;;;9.40;3.00;;;7.00;99.90;;;;;;5072968;28;20089;-62
2021/11/22 05:08:52;;;;;;;11.05;3.10;;;7.00;99.90;;;;;;5077270;28;20077;-65
2021/11/22 05:11:18;;;;;;;11.35;3.47;;;7.00;99.90;;;;;;5089430;28;20036;-61
2021/11/22 05:13:44;;;;;;;9.38;3.08;;;6.90;99.90;;;;;;5090619;28;20032;-61
2021/11/22 05:16:10;;;;;;;4.75;2.90;;;6.90;99.90;;;;;;5077507;28;20082;-61
2021/11/22 05:18:35;;;;;;;10.48;3.60;;;6.90;99.90;;;;;;5071161;28;20056;-61
2021/11/22 05:21:01;;;;;;;6.35;3.38;;;6.90;99.90;;;;;;5071344;28;20036;-61
2021/11/22 05:23:27;;;;;;;9.60;3.92;;;6.80;99.90;;;;;;5078961;28;20031;-62
2021/11/22 05:25:52;;;;;;;10.90;3.88;;;6.80;99.90;;;;;;5069287;28;20173;-62
2021/11/22 05:28:19;;;;;;;8.30;3.90;;;6.80;99.90;;;;;;5090792;28;20031;-62
2021/11/22 05:30:44;;;;;;;9.02;3.83;;;6.70;99.90;;;;;;5076371;28;20096;-61
2021/11/22 05:33:10;;;;;;;17.85;4.15;;;6.70;99.90;;;;;;5089713;28;20103;-61
2021/11/22 05:35:36;;;;;;;18.48;3.80;;;6.70;99.90;;;;;;5057379;28;20457;-61
2021/11/22 05:38:03;;;;;;;12.18;3.90;;;6.70;99.90;;;;;;5081132;28;20024;-61
2021/11/22 05:40:29;;;;;;;10.05;3.70;;;6.60;99.90;;;;;;5083271;28;20029;-61
2021/11/22 05:42:55;;;;;;;10.30;4.03;;;6.70;99.90;;;;;;5084619;28;20043;-61
2021/11/22 05:45:21;;;;;;;16.27;3.97;;;6.60;99.90;;;;;;5083884;28;20020;-61
2021/11/22 05:47:48;;;;;;;10.65;4.57;;;6.60;99.90;;;;;;5069057;28;20395;-61
2021/11/22 05:50:14;;;;;;;10.43;3.75;;;6.60;99.90;;;;;;5065299;28;20041;-62
2021/11/22 05:52:43;;;;;;;9.00;3.83;;;6.60;99.90;;;;;;5087246;28;20040;-61
2021/11/22 05:55:14;;;;;;;17.50;4.60;;;6.70;99.90;;;;;;5092972;28;20020;-63
2021/11/22 05:57:40;;;;;;;9.75;4.18;;;6.60;99.90;;;;;;5090589;28;20063;-62
2021/11/22 06:00:08;;;;;;;14.30;4.30;;;6.50;99.90;;;;;;5073909;28;20068;-62
2021/11/22 06:02:34;;;;;;;8.25;4.22;;;6.50;99.90;;;;;;5077433;28;20036;-62
2021/11/22 06:04:59;;;;;;;10.10;3.60;;;6.50;99.90;;;;;;5083790;28;20466;-62
2021/11/22 06:07:25;;;;;;;10.65;3.85;;;6.60;99.90;;;;;;5064676;28;20024;-62
2021/11/22 06:09:52;;;;;;;9.23;3.55;;;6.50;99.90;;;;;;5077699;28;20039;-61
2021/11/22 06:12:18;;;;;;;11.73;4.25;;;6.50;99.90;;;;;;5089260;28;20024;-64
2021/11/22 06:14:43;;;;;;;8.75;3.20;;;6.60;99.90;;;;;;5091331;28;20036;-62
2021/11/22 06:17:09;;;;;;;14.27;4.50;;;6.60;99.90;;;;;;5073337;28;20035;-67
2021/11/22 06:19:34;;;;;;;10.27;3.88;;;6.60;99.90;;;;;;5060537;28;20388;-62
2021/11/22 06:22:00;;;;;;;12.45;4.38;;;6.60;99.90;;;;;;5060995;28;20127;-63
2021/11/22 06:24:26;;;;;;;11.10;3.95;;;6.50;99.90;;;;;;5053737;28;20032;-62
2021/11/22 06:26:54;;;;;;;8.20;3.78;;;6.50;99.90;;;;;;5072884;28;20035;-62
2021/11/22 06:29:21;;;;;;;11.88;4.50;;;6.60;99.90;;;;;;5057705;28;20106;-62
2021/11/22 06:31:47;;;;;;;11.10;3.80;;;6.50;99.90;;;;;;5054585;28;20087;-62
2021/11/22 06:34:12;;;;;;;14.65;3.92;;;6.50;99.90;;;;;;5072089;28;20070;-62
2021/11/22 06:36:38;;;;;;;13.07;4.80;;;6.40;99.90;;;;;;5067582;28;20466;-62
2021/11/22 06:39:04;;;;;;;8.23;4.32;;;6.40;99.90;;;;;;5058594;28;20025;-62
2021/11/22 06:41:29;;;;;;;10.15;4.57;;;6.50;99.90;;;;;;5057399;28;20327;-61
2021/11/22 06:43:55;;;;;;;11.00;4.88;;;6.40;99.90;;;;;;5051432;28;20123;-62
2021/11/22 06:46:21;;;;;;;18.77;6.70;;;6.40;99.90;;;;;;5052326;28;20389;-63
2021/11/22 06:48:46;;;;;;;15.13;4.32;;;6.30;99.90;;;;;;5065336;28;20497;-62
2021/11/22 06:51:12;;;;;;;11.15;4.63;;;6.30;99.90;;;;;;5071685;28;20033;-62
2021/11/22 06:53:38;;;;;;;15.38;4.72;;;6.20;99.90;;;;;;5054782;28;20029;-62
2021/11/22 06:56:04;;;;;;;8.00;4.95;;;6.20;99.90;;;;;;5057921;28;20074;-62
2021/11/22 06:58:29;;;;;;;19.40;5.07;;;6.10;99.90;;;;;;5058969;28;20021;-62
2021/11/22 07:00:55;;;;;;;15.50;5.28;;;6.20;99.90;;;;;;5057933;28;20033;-62
2021/11/22 07:03:23;;;;;;;12.35;4.82;;;6.20;99.90;;;;;;5070074;28;20035;-62
2021/11/22 07:05:48;;;;;;;15.45;4.50;;;6.30;99.90;;;;;;5065015;28;20347;-62
2021/11/22 07:08:14;;;;;;;9.60;4.93;;;6.30;99.90;;;;;;5066833;28;20032;-62
2021/11/22 07:10:40;;;;;;;13.88;4.82;;;6.30;99.90;;;;;;5070055;28;20028;-62
2021/11/22 07:13:05;;;;;;;11.00;4.72;;;6.30;99.90;;;;;;5061127;28;20036;-62
2021/11/22 07:15:35;;;;;;;13.93;5.85;;;6.20;99.90;;;;;;5062278;28;20768;-62
2021/11/22 07:18:02;;;;;;;11.23;5.22;;;6.20;99.90;;;;;;5067908;28;20506;-62
2021/11/22 07:20:28;;;;;;;9.63;4.70;;;6.20;99.90;;;;;;5040604;28;20368;-63
2021/11/22 07:22:53;;;;;;;18.55;5.28;;;6.20;99.90;;;;;;5061435;28;20115;-61
2021/11/22 07:25:19;;;;;;;10.73;5.90;;;6.20;99.90;;;;;;5069548;28;20028;-62
2021/11/22 07:27:45;;;;;;;9.15;5.13;;;6.30;99.90;;;;;;5070390;28;20089;-62
2021/11/22 07:30:11;;;;;;;13.65;5.20;;;6.30;99.90;;;;;;5071731;28;20355;-63
2021/11/22 07:32:37;;;;;;;8.35;4.47;;;6.60;99.90;;;;;;5061368;28;20029;-62
2021/11/22 07:35:03;;;;;;;11.40;4.63;;;7.10;99.90;;;;;;5057288;28;20048;-61
2021/11/22 07:37:29;;;;;;;10.40;4.00;;;7.40;99.90;;;;;;5051568;28;20131;-62
2021/11/22 07:39:55;;;;;;;8.80;4.28;;;8.00;99.90;;;;;;5054187;28;20458;-63
2021/11/22 07:42:20;;;;;;;8.02;4.38;;;8.80;99.90;;;;;;5070522;28;20039;-62
2021/11/22 07:44:47;;;;;;;8.15;3.67;;;9.60;99.90;;;;;;5067851;28;20393;-62
2021/11/22 07:47:13;;;;;;;6.07;3.45;;;9.90;99.90;;;;;;5051824;28;20032;-62
2021/11/22 07:49:39;;;;;;;5.53;3.15;;;10.80;99.90;;;;;;5059929;28;20029;-63
2021/11/22 07:52:06;;;;;;;6.40;2.92;;;11.20;99.90;;;;;;5065520;28;20398;-62
2021/11/22 07:54:32;;;;;;;7.95;3.88;;;11.90;99.90;;;;;;5056167;28;20425;-62
2021/11/22 07:56:57;;;;;;;13.80;3.75;;;12.00;99.90;;;;;;5057967;28;20167;-65
2021/11/22 07:59:23;;;;;;;7.18;3.35;;;12.10;99.90;;;;;;5084801;28;20111;-63
2021/11/22 08:01:49;;;;;;;12.07;3.35;;;12.30;99.90;;;;;;5057597;28;20025;-61
2021/11/22 08:04:17;;;;;;;5.93;2.88;;;12.30;99.90;;;;;;5070700;28;20039;-74
2021/11/22 08:06:47;;;;;;;7.40;3.28;;;12.30;99.90;;;;;;5068344;28;20024;-63
2021/11/22 08:09:25;;;;;;;9.18;3.42;;;12.30;99.90;;;;;;5035601;28;20041;-62
2021/11/22 08:14:37;;;;;;;7.28;3.63;;;11.80;99.90;;;;;;5046204;28;20232;-61
2021/11/22 08:17:04;;;;;;;10.98;4.75;;;12.20;99.90;;;;;;5037223;28;20025;-62
2021/11/22 08:19:29;;;;;;;9.02;3.63;;;12.40;99.90;;;;;;5037214;28;20052;-62
2021/11/22 08:21:55;;;;;;;9.63;3.88;;;12.80;99.90;;;;;;5038839;28;20434;-62
2021/11/22 08:24:26;;;;;;;7.25;3.53;;;13.50;99.90;;;;;;5040548;28;20033;-62
2021/11/22 08:26:52;;;;;;;6.22;3.55;;;13.30;99.90;;;;;;5023027;28;20053;-61
2021/11/22 08:29:18;;;;;;;5.72;3.53;;;13.30;99.90;;;;;;5034683;28;20072;-62
2021/11/22 08:31:44;;;;;;;9.43;3.08;;;13.20;99.90;;;;;;5018726;28;20158;-62
2021/11/22 08:34:09;;;;;;;8.57;3.13;;;13.20;99.90;;;;;;5047003;28;20049;-62
2021/11/22 08:36:35;;;;;;;6.20;3.17;;;13.30;99.90;;;;;;5028215;28;20041;-64
2021/11/22 08:39:01;;;;;;;8.25;3.03;;;13.50;99.40;;;;;;5039370;28;20040;-62
2021/11/22 08:41:27;;;;;;;5.40;2.80;;;14.00;99.40;;;;;;5057084;28;20075;-62
2021/11/22 08:43:53;;;;;;;6.95;2.50;;;14.50;99.90;;;;;;5066405;28;20066;-62
2021/11/22 08:46:18;;;;;;;5.13;2.50;;;14.70;98.80;;;;;;5049972;28;20037;-62
2021/11/22 08:48:44;;;;;;;5.35;2.53;;;14.40;98.00;;;;;;5056365;28;20122;-62
2021/11/22 08:51:10;;;;;;;4.82;2.67;;;14.40;98.60;;;;;;5051411;28;20029;-61
2021/11/22 08:53:35;;;;;;;8.73;3.60;;;13.50;98.70;;;;;;5051653;28;20103;-61
2021/11/22 08:56:02;;;;;;;5.90;3.22;;;13.80;99.10;;;;;;5050273;28;20025;-63
2021/11/22 08:58:27;;;;;;;6.70;3.10;;;14.00;99.50;;;;;;5049924;28;20459;-62
2021/11/22 09:00:53;;;;;;;3.97;2.67;;;14.10;99.10;;;;;;5057418;28;20079;-61
2021/11/22 09:03:19;;;;;;;13.02;4.30;;;13.50;99.80;;;;;;5070813;28;20112;-63
2021/11/22 09:05:45;;;;;;;4.60;3.17;;;12.70;99.70;;;;;;5073156;28;20035;-62
2021/11/22 09:08:11;;;;;;;4.97;2.90;;;12.10;99.90;;;;;;5069188;28;20463;-63
2021/11/22 09:10:37;;;;;;;9.90;2.65;;;11.60;99.90;;;;;;5065460;28;20028;-62
2021/11/22 09:13:04;;;;;;;3.45;2.72;;;11.20;99.90;;;;;;5057236;28;20024;-61
2021/11/22 09:15:31;;;;;;;5.32;2.80;;;10.50;99.90;;;;;;5058356;28;20107;-62
2021/11/22 09:17:57;;;;;;;10.00;2.78;;;10.40;99.90;;;;;;5060023;28;20356;-61
2021/11/22 09:20:24;;;;;;;5.75;2.72;;;10.20;99.90;;;;;;5077776;28;20056;-62
2021/11/22 09:22:50;;;;;;;8.23;4.25;;;10.20;99.90;;;;;;5083587;28;20359;-62
2021/11/22 09:25:15;;;;;;;3.47;2.80;;;10.30;99.90;;;;;;5066791;28;20032;-68
2021/11/22 09:27:41;;;;;;;6.53;2.72;;;11.10;99.90;;;;;;5077510;28;20448;-62
2021/11/22 09:30:08;;;;;;;5.78;3.65;;;11.40;99.90;;;;;;5081593;28;20106;-61
2021/11/22 09:32:34;;;;;;;8.85;3.58;;;11.70;99.90;;;;;;5084148;28;20043;-62
2021/11/22 09:35:00;;;;;;;9.75;3.30;;;11.50;99.90;;;;;;5081210;28;20020;-61
2021/11/22 09:37:26;;;;;;;10.75;3.50;;;11.20;99.90;;;;;;5069115;28;20028;-62
2021/11/22 09:39:53;;;;;;;3.15;2.38;;;11.10;99.90;;;;;;5063909;28;20040;-65
2021/11/22 09:42:19;;;;;;;8.98;2.58;;;10.70;99.90;;;;;;5074502;28;20108;-69
2021/11/22 09:44:44;;;;;;;10.80;2.85;;;10.20;99.90;;;;;;5070960;28;20253;-60
2021/11/22 09:47:10;;;;;;;4.68;2.83;;;10.10;99.90;;;;;;5079918;28;20093;-61
2021/11/22 09:49:36;;;;;;;9.85;2.65;;;9.90;99.90;;;;;;5075759;28;20021;-60
2021/11/22 09:52:03;;;;;;;4.25;2.97;;;9.80;99.90;;;;;;5072371;28;20037;-61
2021/11/22 09:54:29;;;;;;;3.47;3.10;;;9.70;99.90;;;;;;5069265;28;20107;-62
2021/11/22 09:56:55;;;;;;;8.38;3.10;;;9.60;99.90;;;;;;5074698;28;20059;-63
2021/11/22 09:59:22;;;;;;;5.10;3.28;;;9.50;99.90;;;;;;5067082;28;20493;-62
2021/11/22 10:01:53;;;;;;;3.92;2.55;;;9.20;99.90;;;;;;5064874;28;20428;-62
2021/11/22 10:04:19;;;;;;;4.43;3.00;;;9.10;99.90;;;;;;5091706;28;20016;-63
2021/11/22 10:06:54;;;;;;;7.68;3.10;;;9.20;99.90;;;;;;5075482;28;20082;-63
2021/11/22 10:09:35;;;;;;;5.32;3.03;;;9.10;99.90;;;;;;5091943;28;20020;-64
2021/11/22 10:12:10;;;;;;;7.68;2.72;;;9.00;99.90;;;;;;5093033;28;20032;-63
2021/11/22 10:14:55;;;;;;;5.65;2.65;;;8.80;99.90;;;;;;5092762;28;20028;-62
2021/11/22 10:17:48;;;;;;;6.57;2.47;;;8.80;99.90;;;;;;5074495;28;20119;-71
2021/11/22 10:20:17;;;;;;;4.28;2.38;;;8.50;99.90;;;;;;5069509;28;20075;-62
2021/11/22 10:22:43;;;;;;;12.88;3.15;;;8.60;99.90;;;;;;5073932;28;20032;-66
2021/11/22 10:25:18;;;;;;;5.55;2.40;;;8.70;99.90;;;;;;5084910;28;20052;-62
2021/11/22 10:27:44;;;;;;;4.80;2.63;;;8.80;99.90;;;;;;5091955;28;20338;-62
2021/11/22 10:30:43;;;;;;;3.85;2.85;;;8.90;99.90;;;;;;5092317;28;20038;-61
2021/11/22 10:33:12;;;;;;;3.83;2.20;;;8.90;99.90;;;;;;5063738;28;20612;-62
2021/11/22 10:35:40;;;;;;;3.70;2.42;;;9.00;99.90;;;;;;5072777;28;20123;-62
2021/11/22 10:38:19;;;;;;;4.90;2.67;;;9.00;99.90;;;;;;5079857;28;20029;-63
2021/11/22 10:40:57;;;;;;;6.45;3.15;;;9.10;99.90;;;;;;5058629;28;20051;-64
2021/11/22 10:43:30;;;;;;;5.80;2.50;;;8.90;99.90;;;;;;5085126;28;20128;-62
2021/11/22 10:45:56;;;;;;;7.20;2.53;;;8.80;99.90;;;;;;5083716;28;20442;-63
2021/11/22 10:48:26;;;;;;;3.38;2.28;;;9.00;99.90;;;;;;5080219;28;20111;-70
2021/11/22 10:51:19;;;;;;;9.77;3.13;;;9.20;99.90;;;;;;5075553;28;20097;-62
2021/11/22 10:53:46;;;;;;;5.00;2.20;;;9.60;99.90;;;;;;5071956;28;20378;-62
2021/11/22 10:56:26;;;;;;;3.40;2.72;;;9.60;99.90;;;;;;5086027;28;20103;-61
2021/11/22 10:58:55;;;;;;;3.50;2.08;;;9.80;99.90;;;;;;5074756;28;20020;-62
2021/11/22 11:01:28;;;;;;;6.22;2.70;;;9.70;99.90;;;;;;5074826;28;20111;-61
2021/11/22 11:04:07;;;;;;;11.80;2.88;;;9.70;99.90;;;;;;5071192;28;20450;-62
2021/11/22 11:06:58;;;;;;;3.85;2.10;;;9.70;99.90;;;;;;5072336;28;20064;-62
2021/11/22 11:09:36;;;;;;;10.98;2.20;;;9.90;99.90;;;;;;5071675;28;20028;-65
2021/11/22 11:12:07;;;;;;;8.20;2.10;;;10.10;99.90;;;;;;5061562;28;20036;-61
2021/11/22 11:14:35;;;;;;;5.03;2.13;;;10.20;99.90;;;;;;5060101;28;20499;-62
2021/11/22 11:17:30;;;;;;;5.55;2.25;;;10.20;99.90;;;;;;5072399;28;20039;-62
2021/11/22 11:19:57;;;;;;;4.40;1.42;;;10.30;99.90;;;;;;5085182;28;20066;-63
2021/11/22 11:22:24;;;;;;;3.90;1.40;;;10.40;99.90;;;;;;5092076;28;20154;-64
2021/11/22 11:24:50;;;;;;;6.78;1.15;;;10.90;99.90;;;;;;5073085;28;20035;-63
2021/11/22 11:27:17;;;;;;;3.50;1.30;;;11.60;99.90;;;;;;5078722;28;20072;-63
2021/11/22 11:29:44;;;;;;;3.55;1.00;;;12.70;99.90;;;;;;5061338;28;20056;-62
2021/11/22 11:32:09;;;;;;;7.28;1.40;;;13.60;99.90;;;;;;5091446;28;20036;-63
2021/11/22 11:34:48;;;;;;;2.00;0.80;;;14.20;98.90;;;;;;5090796;28;20028;-64
2021/11/22 11:37:24;;;;;;;4.18;0.93;;;13.90;96.40;;;;;;5078336;28;20028;-61
2021/11/22 11:40:03;;;;;;;3.58;1.13;;;12.90;97.90;;;;;;5091031;28;20028;-62
2021/11/22 11:42:53;;;;;;;11.15;1.65;;;12.70;98.40;;;;;;5090801;28;20375;-63
2021/11/22 11:45:29;;;;;;;3.38;1.08;;;12.40;98.60;;;;;;5062764;28;20020;-63
2021/11/22 11:48:21;;;;;;;6.28;1.58;;;11.60;99.90;;;;;;5089803;28;20085;-63
2021/11/22 11:50:48;;;;;;;8.63;1.80;;;11.20;99.90;;;;;;5089130;28;20040;-61
2021/11/22 11:53:18;;;;;;;3.47;1.50;;;10.90;99.90;;;;;;5091106;28;20028;-62
2021/11/22 11:56:05;;;;;;;3.90;1.40;;;10.80;99.90;;;;;;5069031;28;20021;-59
2021/11/22 11:58:30;;;;;;;7.38;2.90;;;10.90;99.90;;;;;;5081321;28;20023;-62
2021/11/22 12:01:04;;;;;;;8.55;2.70;;;11.00;99.90;;;;;;5082113;28;20323;-69
2021/11/22 12:03:50;;;;;;;5.78;2.50;;;11.40;99.90;;;;;;5082646;28;20097;-68
2021/11/22 12:06:42;;;;;;;2.13;1.20;;;12.20;99.90;;;;;;5058958;28;20028;-62
2021/11/22 12:09:27;;;;;;;4.20;0.95;;;12.70;99.90;;;;;;5082429;28;20031;-63
2021/11/22 12:11:53;;;;;;;4.43;0.88;;;11.60;99.90;;;;;;5071619;28;20131;-65
2021/11/22 12:14:47;;;;;;;2.53;1.00;;;11.00;99.90;;;;;;5089285;28;20028;-62
2021/11/22 12:17:35;;;;;;;4.55;1.23;;;10.70;99.90;;;;;;5089578;28;20055;-62
2021/11/22 12:20:07;;;;;;;2.05;0.93;;;10.40;99.90;;;;;;5089697;28;20059;-62
2021/11/22 12:22:41;;;;;;;9.95;1.77;;;10.20;99.90;;;;;;5058314;28;20020;-62
2021/11/22 12:25:09;;;;;;;4.22;0.98;;;10.20;99.90;;;;;;5089338;28;20024;-62
2021/11/22 12:27:37;;;;;;;1.38;1.00;;;10.30;99.90;;;;;;5035765;28;20060;-62
2021/11/22 12:30:29;;;;;;;6.28;1.20;;;10.30;99.90;;;;;;5068571;28;20209;-63
2021/11/22 12:33:20;;;;;;;1.63;0.93;;;10.30;99.90;;;;;;5059033;28;20233;-61
2021/11/22 12:36:01;;;;;;;3.88;1.85;;;10.40;99.90;;;;;;5063133;28;20366;-62
2021/11/22 12:38:33;;;;;;;1.58;1.02;;;11.00;99.90;;;;;;5077066;28;20135;-69
2021/11/22 12:41:05;;;;;;;5.60;0.75;;;11.50;99.90;;;;;;5083276;28;20449;-62
2021/11/22 12:43:47;;;;;;;1.95;0.50;;;11.40;99.90;;;;;;5065438;28;20354;-62
2021/11/22 12:46:21;;;;;;;2.67;0.77;;;11.60;99.90;;;;;;5064977;28;20029;-62
2021/11/22 12:48:48;;;;;;;3.33;0.60;;;11.40;99.90;;;;;;5069868;28;20033;-63
2021/11/22 12:51:18;;;;;;;6.22;0.88;;;11.10;99.90;;;;;;5053015;28;20043;-62
2021/11/22 12:54:21;;;;;;;7.65;0.95;;;10.90;99.90;;;;;;5072457;28;20035;-62
2021/11/22 12:56:48;;;;;;;1.88;0.70;;;10.80;99.90;;;;;;5076653;28;20120;-62
2021/11/22 12:59:19;;;;;;;4.93;1.35;;;10.50;99.90;;;;;;5064497;28;20025;-63